createdAt,value
2024-05-09T00:01:48.814Z,62.56
2024-05-09T00:04:37.316Z,62.58
2024-05-09T00:07:22.600Z,61.32
2024-05-09T00:10:11.834Z,63.64
2024-05-09T00:13:03.596Z,63.12
2024-05-09T00:15:50.940Z,62.55
2024-05-09T00:18:36.275Z,62.23
2024-05-09T00:21:21.502Z,62.85
2024-05-09T00:24:06.769Z,63.40
2024-05-09T00:26:54.661Z,62.18
2024-05-09T00:29:42.900Z,61.30
2024-05-09T00:32:28.369Z,60.67
2024-05-09T00:35:13.581Z,61.53
2024-05-09T00:37:58.812Z,62.26
2024-05-09T00:40:53.501Z,63.69
2024-05-09T00:43:39.156Z,63.49
2024-05-09T00:46:28.068Z,64.15
2024-05-09T00:49:23.899Z,64.20
2024-05-09T00:52:09.621Z,66.96
2024-05-09T00:54:57.738Z,67.44
2024-05-09T00:57:42.908Z,67.55
2024-05-09T01:00:35.948Z,67.59
2024-05-09T01:03:25.264Z,68.66
2024-05-09T01:06:12.772Z,69.05
2024-05-09T01:08:58.169Z,68.83
2024-05-09T01:11:46.772Z,69.23
2024-05-09T01:14:37.331Z,68.77
2024-05-09T01:17:39.252Z,68.61
2024-05-09T01:20:39.660Z,67.83
2024-05-09T01:23:32.461Z,66.40
2024-05-09T01:26:20.375Z,67.50
2024-05-09T01:29:09.216Z,68.23
2024-05-09T01:31:55.107Z,68.79
2024-05-09T01:34:40.673Z,68.54
2024-05-09T01:37:26.272Z,68.28
2024-05-09T01:40:22.106Z,69.79
2024-05-09T01:43:11.643Z,68.93
2024-05-09T01:45:57.254Z,68.00
2024-05-09T01:48:42.607Z,67.91
2024-05-09T01:51:28.137Z,68.71
2024-05-09T01:54:14.588Z,68.10
2024-05-09T01:57:00.181Z,68.07
2024-05-09T01:59:45.595Z,66.30
2024-05-09T02:02:30.599Z,67.36
2024-05-09T02:05:16.150Z,65.42
2024-05-09T02:08:04.806Z,64.23
2024-05-09T02:10:50.601Z,65.15
2024-05-09T02:13:36.260Z,63.89
2024-05-09T02:16:21.411Z,63.49
2024-05-09T02:19:10.034Z,64.13
2024-05-09T02:21:55.612Z,63.87
2024-05-09T02:24:40.834Z,64.45
2024-05-09T02:27:26.248Z,63.87
2024-05-09T02:30:18.801Z,64.95
2024-05-09T02:33:13.222Z,64.23
2024-05-09T02:36:02.616Z,64.53
2024-05-09T02:38:49.900Z,66.43
2024-05-09T02:41:38.230Z,68.35
2024-05-09T02:44:23.721Z,66.87
2024-05-09T02:47:15.484Z,67.15
2024-05-09T02:50:00.910Z,68.38
2024-05-09T02:52:46.378Z,67.86
2024-05-09T02:55:31.910Z,68.63
2024-05-09T02:58:17.066Z,67.65
2024-05-09T03:01:03.487Z,67.51
2024-05-09T03:03:49.164Z,67.96
2024-05-09T03:06:34.130Z,68.13
2024-05-09T03:09:21.476Z,67.98
2024-05-09T03:12:07.038Z,69.15
2024-05-09T03:14:56.517Z,68.50
2024-05-09T03:17:42.150Z,68.68
2024-05-09T03:20:33.296Z,68.22
2024-05-09T03:23:20.479Z,67.71
2024-05-09T03:26:05.747Z,68.43
2024-05-09T03:28:54.448Z,69.86
2024-05-09T03:31:42.951Z,69.99
2024-05-09T03:34:28.306Z,67.58
2024-05-09T03:37:13.671Z,68.56
2024-05-09T03:40:09.134Z,68.22
2024-05-09T03:43:00.478Z,67.73
2024-05-09T03:45:46.150Z,65.97
2024-05-09T03:48:31.349Z,66.09
2024-05-09T03:51:16.728Z,65.26
2024-05-09T03:54:03.833Z,65.39
2024-05-09T03:56:56.602Z,65.33
2024-05-09T03:59:49.755Z,64.13
2024-05-09T04:02:38.053Z,62.92
2024-05-09T04:08:22.456Z,62.62
2024-05-09T04:11:14.120Z,61.50
2024-05-09T04:13:59.312Z,62.36
2024-05-09T04:16:47.674Z,64.02
2024-05-09T04:19:33.027Z,64.87
2024-05-09T04:22:18.145Z,64.60
2024-05-09T04:25:07.954Z,65.34
2024-05-09T04:27:53.705Z,65.42
2024-05-09T04:30:41.112Z,65.11
2024-05-09T04:33:28.722Z,65.25
2024-05-09T04:36:16.891Z,63.61
2024-05-09T04:39:03.297Z,64.38
2024-05-09T04:41:49.831Z,63.85
2024-05-09T04:44:35.094Z,65.42
2024-05-09T04:47:20.399Z,65.20
2024-05-09T04:50:05.753Z,65.54
2024-05-09T04:52:51.073Z,66.34
2024-05-09T04:55:36.517Z,65.53
2024-05-09T04:58:21.614Z,65.97
2024-05-09T05:01:11.182Z,65.11
2024-05-09T05:04:04.811Z,63.22
2024-05-09T05:06:50.087Z,66.38
2024-05-09T05:09:36.608Z,64.42
2024-05-09T05:12:22.078Z,67.40
2024-05-09T05:15:07.312Z,66.57
2024-05-09T05:17:52.488Z,66.29
2024-05-09T05:20:37.507Z,64.72
2024-05-09T05:23:22.994Z,65.90
2024-05-09T05:26:08.431Z,66.40
2024-05-09T05:28:53.778Z,66.00
2024-05-09T05:31:42.188Z,66.88
2024-05-09T05:34:27.439Z,66.46
2024-05-09T05:37:13.827Z,66.23
2024-05-09T05:39:59.184Z,64.48
2024-05-09T05:42:44.517Z,65.70
2024-05-09T05:45:31.270Z,65.54
2024-05-09T05:48:17.209Z,65.19
2024-05-09T05:51:04.610Z,64.46
2024-05-09T05:53:50.348Z,65.36
2024-05-09T05:56:35.729Z,65.75
2024-05-09T05:59:21.830Z,64.89
2024-05-09T06:02:07.094Z,65.82
2024-05-09T06:04:52.298Z,66.71
2024-05-09T06:07:37.918Z,64.74
2024-05-09T06:10:29.633Z,63.96
2024-05-09T06:13:20.233Z,65.28
2024-05-09T06:16:05.534Z,66.73
2024-05-09T06:18:55.528Z,65.64
2024-05-09T06:21:45.996Z,66.60
2024-05-09T06:24:31.380Z,66.91
2024-05-09T06:27:19.993Z,65.78
2024-05-09T06:30:08.232Z,65.73
2024-05-09T06:33:04.750Z,65.58
2024-05-09T06:35:50.461Z,65.39
2024-05-09T06:38:37.404Z,65.66
2024-05-09T06:41:22.868Z,65.54
2024-05-09T06:44:08.195Z,65.72
2024-05-09T06:46:54.622Z,65.09
2024-05-09T06:49:44.255Z,63.57
2024-05-09T06:52:31.422Z,65.38
2024-05-09T06:55:16.859Z,63.51
2024-05-09T06:58:02.197Z,62.46
2024-05-09T07:00:47.693Z,64.53
2024-05-09T07:03:32.836Z,64.06
2024-05-09T07:06:20.370Z,63.67
2024-05-09T07:09:05.885Z,61.93
2024-05-09T07:11:53.612Z,61.42
2024-05-09T07:14:38.851Z,60.62
2024-05-09T07:17:31.515Z,58.72
2024-05-09T07:20:23.664Z,59.34
2024-05-09T07:23:20.140Z,60.42
2024-05-09T07:26:05.465Z,59.39
2024-05-09T07:28:50.897Z,58.24
2024-05-09T07:31:38.178Z,57.11
2024-05-09T07:34:24.294Z,58.83
2024-05-09T07:37:10.443Z,58.72
2024-05-09T07:39:57.389Z,58.62
2024-05-09T07:42:43.951Z,59.35
2024-05-09T07:45:47.562Z,57.84
2024-05-09T07:53:14.224Z,55.85
2024-05-09T07:54:44.307Z,55.73
2024-05-09T07:57:29.462Z,54.77
2024-05-09T08:00:20.368Z,54.74
2024-05-09T08:06:17.885Z,55.16
2024-05-09T08:09:21.367Z,56.31
2024-05-09T08:15:12.723Z,55.20
2024-05-09T08:18:01.386Z,53.55
2024-05-09T08:20:57.015Z,54.21
2024-05-09T08:23:49.318Z,54.68
2024-05-09T08:26:47.127Z,54.43
2024-05-09T08:32:35.943Z,52.60
2024-05-09T08:38:40.502Z,53.46
2024-05-09T08:44:48.142Z,51.28
2024-05-09T08:50:38.553Z,51.77
2024-05-09T08:53:25.385Z,51.53
2024-05-09T08:56:14.872Z,50.99
2024-05-09T08:59:00.726Z,53.25
2024-05-09T09:04:48.738Z,55.97
2024-05-09T09:10:43.081Z,55.45
2024-05-09T09:13:40.355Z,55.73
2024-05-09T09:16:25.800Z,54.65
2024-05-09T09:22:26.072Z,54.98
2024-05-09T09:31:28.773Z,53.91
2024-05-09T09:34:26.818Z,54.17
2024-05-09T09:37:12.074Z,55.46
2024-05-09T09:40:32.073Z,56.02
2024-05-09T09:43:12.055Z,56.20
2024-05-09T09:45:57.643Z,54.23
2024-05-09T09:48:43.419Z,53.38
2024-05-09T09:51:54.575Z,52.73
2024-05-09T09:54:49.788Z,55.19
2024-05-09T09:57:56.822Z,55.08
2024-05-09T10:00:49.910Z,53.79
2024-05-09T10:03:39.345Z,56.30
2024-05-09T10:06:38.443Z,54.30
2024-05-09T10:22:12.561Z,48.81
2024-05-09T10:25:23.305Z,49.63
2024-05-09T10:29:15.045Z,49.55
2024-05-09T10:31:27.706Z,49.73
2024-05-09T10:37:23.072Z,51.79
2024-05-09T10:40:17.259Z,50.14
2024-05-09T10:46:06.918Z,48.11
2024-05-09T10:48:52.404Z,47.53
2024-05-09T10:51:38.615Z,46.44
2024-05-09T10:54:23.899Z,47.52
2024-05-09T10:57:09.123Z,48.19
2024-05-09T10:59:54.468Z,47.34
2024-05-09T11:02:39.947Z,50.45
2024-05-09T11:05:25.474Z,48.59
2024-05-09T11:08:10.751Z,46.32
2024-05-09T11:10:56.955Z,47.35
2024-05-09T11:13:42.370Z,49.04
2024-05-09T11:16:27.765Z,49.17
2024-05-09T11:19:13.113Z,47.24
2024-05-09T11:21:58.846Z,47.31
2024-05-09T11:24:44.081Z,46.99
2024-05-09T11:27:29.600Z,46.94
2024-05-09T11:30:24.175Z,47.82
2024-05-09T11:33:15.224Z,46.33
2024-05-09T11:36:03.543Z,45.68
2024-05-09T11:38:48.558Z,47.96
2024-05-09T11:41:33.857Z,47.31
2024-05-09T11:44:19.052Z,47.66
2024-05-09T11:47:04.335Z,46.39
2024-05-09T11:49:50.095Z,48.34
2024-05-09T11:52:54.095Z,48.56
2024-05-09T11:58:44.074Z,48.87
2024-05-09T12:01:32.527Z,48.33
2024-05-09T12:04:18.379Z,48.23
2024-05-09T12:07:04.311Z,47.36
2024-05-09T12:09:50.758Z,48.18
2024-05-09T12:12:38.932Z,48.52
2024-05-09T12:15:27.589Z,48.35
2024-05-09T12:18:20.922Z,47.36
2024-05-09T12:21:07.676Z,46.53
2024-05-09T12:23:56.977Z,46.71
2024-05-09T12:26:42.148Z,46.52
2024-05-09T12:29:30.822Z,48.40
2024-05-09T12:32:20.463Z,47.14
2024-05-09T12:35:07.780Z,45.07
2024-05-09T12:37:54.455Z,44.81
2024-05-09T12:40:43.702Z,45.40
2024-05-09T12:46:27.893Z,42.51
2024-05-09T12:49:22.748Z,43.04
2024-05-09T12:52:25.610Z,43.84
2024-05-09T12:55:22.891Z,43.98
2024-05-09T12:58:18.592Z,42.80
2024-05-09T13:01:03.906Z,45.38
2024-05-09T13:03:49.493Z,43.61
2024-05-09T13:06:37.920Z,45.02
2024-05-09T13:09:29.473Z,44.74
2024-05-09T13:12:17.723Z,43.00
2024-05-09T13:15:13.019Z,42.62
2024-05-09T13:18:02.943Z,43.39
2024-05-09T13:20:51.015Z,43.17
2024-05-09T13:26:46.266Z,44.13
2024-05-09T13:32:48.575Z,41.42
2024-05-09T13:35:34.030Z,41.01
2024-05-09T13:38:29.894Z,42.14
2024-05-09T13:44:30.885Z,41.26
2024-05-09T13:50:58.671Z,42.75
2024-05-09T13:53:36.803Z,42.09
2024-05-09T14:05:39.580Z,40.18
2024-05-09T14:08:34.965Z,39.16
2024-05-09T14:11:32.078Z,38.88
2024-05-09T14:14:28.647Z,38.00
2024-05-09T14:17:24.726Z,38.30
2024-05-09T14:23:24.382Z,39.94
2024-05-09T14:26:13.145Z,40.11
2024-05-09T14:32:15.789Z,40.57
2024-05-09T14:35:14.009Z,39.42
2024-05-09T14:38:17.476Z,39.30
2024-05-09T14:41:08.552Z,39.39
2024-05-09T14:50:19.621Z,41.36
2024-05-09T14:53:52.150Z,41.58
2024-05-09T14:59:53.785Z,40.99
2024-05-09T15:06:09.326Z,41.41
2024-05-09T15:08:56.317Z,43.38
2024-05-09T15:11:53.302Z,42.30
2024-05-09T15:15:09.151Z,41.41
2024-05-09T15:18:00.254Z,40.25
2024-05-09T15:20:48.557Z,41.25
2024-05-09T15:23:48.603Z,40.93
2024-05-09T15:26:43.463Z,42.86
2024-05-09T15:29:31.475Z,42.76
2024-05-09T15:41:39.054Z,41.87
2024-05-09T15:44:31.053Z,42.40
2024-05-09T15:47:23.902Z,42.51
2024-05-09T15:50:17.099Z,42.53
2024-05-09T15:53:08.221Z,42.88
2024-05-09T15:59:00.973Z,42.72
2024-05-09T16:01:46.268Z,42.94
2024-05-09T16:04:35.339Z,42.92
2024-05-09T16:07:24.725Z,42.44
2024-05-09T16:10:13.199Z,42.59
2024-05-09T16:13:04.888Z,42.94
2024-05-09T16:15:50.419Z,42.93
2024-05-09T16:18:37.690Z,42.31
2024-05-09T16:21:34.464Z,42.09
2024-05-09T16:24:19.992Z,41.70
2024-05-09T16:27:05.363Z,43.30
2024-05-09T16:29:50.731Z,43.35
2024-05-09T16:32:36.223Z,43.23
2024-05-09T16:35:21.267Z,42.98
2024-05-09T16:38:06.549Z,43.60
2024-05-09T16:40:59.562Z,44.54
2024-05-09T16:43:44.891Z,44.61
2024-05-09T16:46:30.410Z,43.96
2024-05-09T16:49:16.011Z,43.45
2024-05-09T16:52:01.632Z,43.60
2024-05-09T16:54:46.860Z,43.48
2024-05-09T16:57:31.893Z,44.13
2024-05-09T17:00:25.589Z,43.82
2024-05-09T17:03:17.382Z,43.74
2024-05-09T17:06:02.997Z,45.03
2024-05-09T17:08:48.603Z,45.50
2024-05-09T17:11:41.384Z,45.04
2024-05-09T17:14:29.225Z,45.56
2024-05-09T17:17:14.893Z,45.32
2024-05-09T17:23:00.522Z,44.69
2024-05-09T17:32:00.991Z,44.51
2024-05-09T17:34:46.356Z,44.24
2024-05-09T17:37:33.137Z,44.04
2024-05-09T17:40:27.903Z,44.30
2024-05-09T17:43:19.130Z,44.84
2024-05-09T17:46:13.674Z,44.72
2024-05-09T17:49:01.342Z,45.54
2024-05-09T17:51:47.426Z,46.18
2024-05-09T17:54:34.500Z,46.61
2024-05-09T17:57:20.012Z,47.31
2024-05-09T18:00:17.441Z,47.12
2024-05-09T18:03:06.738Z,46.83
2024-05-09T18:05:57.854Z,46.43
2024-05-09T18:08:43.323Z,46.47
2024-05-09T18:11:31.806Z,46.36
2024-05-09T18:14:17.058Z,46.35
2024-05-09T18:17:02.211Z,46.62
2024-05-09T18:19:47.469Z,45.90
2024-05-09T18:22:35.456Z,44.60
2024-05-09T18:25:20.718Z,44.69
2024-05-09T18:28:13.573Z,45.72
2024-05-09T18:31:02.809Z,45.26
2024-05-09T18:33:51.223Z,45.07
2024-05-09T18:36:37.178Z,44.58
2024-05-09T18:39:25.674Z,45.30
2024-05-09T18:42:10.684Z,45.95
2024-05-09T18:45:00.431Z,46.56
2024-05-09T18:47:46.069Z,46.11
2024-05-09T18:50:37.292Z,45.68
2024-05-09T18:53:25.143Z,46.05
2024-05-09T18:56:10.631Z,47.13
2024-05-09T18:58:55.775Z,47.77
2024-05-09T19:01:44.153Z,47.67
2024-05-09T19:04:29.421Z,47.51
2024-05-09T19:07:15.078Z,47.33
2024-05-09T19:10:00.491Z,46.88
2024-05-09T19:12:57.223Z,47.82
2024-05-09T19:15:43.389Z,47.53
2024-05-09T19:18:29.416Z,47.24
2024-05-09T19:21:14.935Z,47.88
2024-05-09T19:24:01.626Z,47.68
2024-05-09T19:26:49.267Z,47.22
2024-05-09T19:29:37.869Z,47.49
2024-05-09T19:32:27.715Z,49.20
2024-05-09T19:35:13.152Z,47.91
2024-05-09T19:38:00.911Z,48.47
2024-05-09T19:40:46.621Z,47.93
2024-05-09T19:43:34.601Z,48.97
2024-05-09T19:46:21.087Z,49.24
2024-05-09T19:49:06.920Z,50.03
2024-05-09T19:51:52.610Z,49.00
2024-05-09T19:54:43.300Z,49.08
2024-05-09T19:57:28.530Z,48.73
2024-05-09T20:00:22.236Z,49.09
2024-05-09T20:03:17.989Z,48.98
2024-05-09T20:06:09.659Z,49.93
2024-05-09T20:08:56.508Z,49.76
2024-05-09T20:11:50.376Z,50.42
2024-05-09T20:14:39.594Z,51.28
2024-05-09T20:17:25.103Z,50.99
2024-05-09T20:20:20.126Z,51.26
2024-05-09T20:23:15.614Z,52.53
2024-05-09T20:26:00.910Z,52.42
2024-05-09T20:28:51.496Z,52.10
2024-05-09T20:31:38.741Z,51.75
2024-05-09T20:34:25.410Z,51.36
2024-05-09T20:37:18.158Z,51.11
2024-05-09T20:40:05.168Z,51.06
2024-05-09T20:42:53.330Z,52.47
2024-05-09T20:45:39.960Z,52.38
2024-05-09T20:48:25.970Z,53.11
2024-05-09T20:51:12.511Z,52.79
2024-05-09T20:54:00.539Z,53.12
2024-05-09T20:56:45.802Z,53.20
2024-05-09T20:59:32.416Z,54.34
2024-05-09T21:02:18.290Z,54.50
2024-05-09T21:05:03.716Z,53.83
2024-05-09T21:07:48.821Z,53.14
2024-05-09T21:10:34.795Z,52.77
2024-05-09T21:13:25.948Z,53.64
2024-05-09T21:16:11.853Z,53.32
2024-05-09T21:18:57.421Z,52.74
2024-05-09T21:21:42.643Z,52.41
2024-05-09T21:24:27.923Z,52.88
2024-05-09T21:27:13.515Z,52.39
2024-05-09T21:29:58.893Z,53.36
2024-05-09T21:32:44.567Z,52.91
2024-05-09T21:35:30.027Z,53.24
2024-05-09T21:38:15.029Z,52.59
2024-05-09T21:41:02.626Z,51.61
2024-05-09T21:43:48.199Z,51.28
2024-05-09T21:46:35.883Z,50.68
2024-05-09T21:49:23.705Z,50.73
2024-05-09T21:52:08.885Z,51.22
2024-05-09T21:54:54.013Z,52.18
2024-05-09T21:57:45.745Z,52.80
2024-05-09T22:00:38.225Z,53.72
2024-05-09T22:03:25.135Z,54.27
2024-05-09T22:06:11.788Z,54.10
2024-05-09T22:08:57.233Z,54.33
2024-05-09T22:11:48.129Z,55.37
2024-05-09T22:14:41.247Z,54.40
2024-05-09T22:17:39.527Z,53.90
2024-05-09T22:20:36.548Z,54.59
2024-05-09T22:23:24.543Z,55.23
2024-05-09T22:26:09.839Z,55.44
2024-05-09T22:28:59.453Z,56.01
2024-05-09T22:31:46.305Z,55.65
2024-05-09T22:34:39.456Z,54.91
2024-05-09T22:40:33.047Z,55.08
2024-05-09T22:43:27.925Z,55.07
2024-05-09T22:46:13.205Z,55.41
2024-05-09T22:49:00.729Z,55.55
2024-05-09T22:51:48.932Z,55.05
2024-05-09T22:54:34.187Z,54.17
2024-05-09T22:57:20.769Z,55.01
2024-05-09T23:00:12.402Z,56.19
2024-05-09T23:02:57.459Z,55.47
2024-05-09T23:05:42.680Z,56.81
2024-05-09T23:08:28.585Z,56.12
2024-05-09T23:11:14.291Z,57.05
2024-05-09T23:13:59.771Z,57.83
2024-05-09T23:16:45.554Z,56.75
2024-05-09T23:19:31.296Z,56.78
2024-05-09T23:22:16.815Z,56.67
2024-05-09T23:25:02.004Z,56.43
2024-05-09T23:27:47.826Z,55.17
2024-05-09T23:30:37.868Z,55.10
2024-05-09T23:33:29.919Z,54.25
2024-05-09T23:36:17.628Z,55.45
2024-05-09T23:39:05.823Z,55.08
2024-05-09T23:41:51.551Z,56.15
2024-05-09T23:44:37.568Z,56.24
2024-05-09T23:47:22.920Z,54.82
2024-05-09T23:50:20.272Z,54.99
2024-05-09T23:53:10.066Z,55.69
2024-05-09T23:55:56.250Z,55.51
2024-05-09T23:58:44.177Z,56.52
